Time;durP1;ratioP1;P1;durP2;ratioP2;P2;SDS_P1;SDS_P2;PMS_P1;PMS_P2;Temp;Humidity;BMP_temperature;BMP_pressure;BME280_temperature;BME280_humidity;BME280_pressure;Samples;Min_cycle;Max_cycle;Signal;HPM_P1;HPM_P2
2023/07/15 00:02:02;;;;;;;19.00;5.60;;;;;;;17.13;70.97;100144.88;110081;1273;23124;-56
2023/07/15 00:04:34;;;;;;;17.40;4.70;;;;;;;17.07;71.10;100149.02;110064;1265;22193;-55
2023/07/15 00:07:06;;;;;;;15.40;4.10;;;;;;;17.00;71.28;100149.86;110052;1275;22305;-57
2023/07/15 00:09:37;;;;;;;10.60;2.90;;;;;;;16.94;71.47;100147.96;110045;1276;22217;-58
2023/07/15 00:12:11;;;;;;;12.00;2.90;;;;;;;16.89;71.60;100149.89;110093;1267;22911;-55
2023/07/15 00:14:42;;;;;;;10.10;2.70;;;;;;;16.85;71.72;100148.25;110071;1271;22331;-55
2023/07/15 00:17:13;;;;;;;12.90;3.60;;;;;;;16.79;72.02;100149.61;110085;1271;23918;-57
2023/07/15 00:19:44;;;;;;;11.30;2.60;;;;;;;16.76;72.17;100150.92;110050;1273;22204;-55
2023/07/15 00:22:15;;;;;;;11.50;2.70;;;;;;;16.72;72.31;100143.92;110069;1264;22353;-54
2023/07/15 00:24:47;;;;;;;7.60;1.80;;;;;;;16.69;72.43;100141.54;110096;1276;22277;-55
2023/07/15 00:27:17;;;;;;;9.40;2.20;;;;;;;16.65;72.42;100140.95;110050;1276;22214;-57
2023/07/15 00:29:48;;;;;;;11.10;2.30;;;;;;;16.59;72.69;100141.56;110053;1263;23020;-54
2023/07/15 00:32:20;;;;;;;11.70;2.70;;;;;;;16.53;72.91;100138.42;110056;1267;23036;-56
2023/07/15 00:34:51;;;;;;;13.80;2.30;;;;;;;16.50;73.13;100136.91;110056;1267;22541;-56
2023/07/15 00:37:22;;;;;;;9.30;2.60;;;;;;;16.49;73.02;100126.50;110047;1267;22264;-55
2023/07/15 00:39:53;;;;;;;10.70;3.10;;;;;;;16.50;73.20;100120.30;110063;1271;22416;-54
2023/07/15 00:42:43;;;;;;;11.40;3.20;;;;;;;16.50;73.49;100118.15;110038;1274;22201;-56
2023/07/15 00:45:11;;;;;;;;;;;;;;;16.47;73.55;100119.73;110067;1276;22472;-55
2023/07/15 00:47:47;;;;;;;18.00;6.30;;;;;;;16.42;73.65;100122.19;110064;1271;22295;-59
2023/07/15 00:50:18;;;;;;;18.90;7.30;;;;;;;16.37;73.86;100121.08;110055;1271;22214;-57
2023/07/15 00:52:50;;;;;;;18.60;7.70;;;;;;;16.32;74.13;100117.79;110072;1276;22241;-55
2023/07/15 00:55:22;;;;;;;25.80;10.10;;;;;;;16.26;74.22;100119.30;110073;1262;22128;-57
2023/07/15 00:57:53;;;;;;;21.20;9.30;;;;;;;16.19;74.32;100118.23;110113;1277;22754;-60
2023/07/15 01:00:25;;;;;;;19.10;7.50;;;;;;;16.13;74.40;100115.17;110098;1270;22272;-57
2023/07/15 01:02:56;;;;;;;15.50;5.80;;;;;;;16.06;74.55;100113.27;109978;1276;22280;-60
2023/07/15 01:05:29;;;;;;;13.40;4.00;;;;;;;16.01;74.68;100109.93;110035;1274;22225;-59
2023/07/15 01:07:59;;;;;;;12.10;3.20;;;;;;;15.95;74.67;100115.02;109992;1274;22209;-54
2023/07/15 01:10:32;;;;;;;9.30;2.30;;;;;;;15.90;74.93;100115.14;109994;1268;23323;-58
2023/07/15 01:13:05;;;;;;;15.10;3.50;;;;;;;15.86;74.86;100109.38;109974;1276;22395;-56
2023/07/15 01:15:35;;;;;;;13.10;4.00;;;;;;;15.82;75.14;100108.33;109984;1276;22212;-54
2023/07/15 01:18:07;;;;;;;58.90;33.00;;;;;;;15.78;75.14;100103.52;109968;1270;22408;-57
2023/07/15 01:20:37;;;;;;;82.50;48.20;;;;;;;15.76;75.40;100103.54;109984;1265;22431;-54
2023/07/15 01:23:08;;;;;;;133.60;83.90;;;;;;;15.72;75.62;100106.73;109990;1273;22987;-54
2023/07/15 01:25:39;;;;;;;118.50;71.50;;;;;;;15.69;75.76;100104.28;109961;1274;22128;-55
2023/07/15 01:28:10;;;;;;;101.80;58.00;;;;;;;15.67;75.94;100106.04;109981;1264;22335;-56
2023/07/15 01:30:41;;;;;;;79.30;44.60;;;;;;;15.64;76.14;100108.40;109975;1280;22284;-55
2023/07/15 01:33:15;;;;;;;75.10;38.90;;;;;;;15.61;76.43;100105.58;109953;1273;22721;-54
2023/07/15 01:35:49;;;;;;;84.10;45.10;;;;;;;15.57;76.46;100106.84;109963;1276;22203;-57
2023/07/15 01:38:20;;;;;;;83.70;45.30;;;;;;;15.54;76.74;100106.79;109949;1276;22229;-56
2023/07/15 01:40:51;;;;;;;88.10;43.90;;;;;;;15.50;76.72;100101.85;109973;1273;22222;-59
2023/07/15 01:43:22;;;;;;;83.00;39.00;;;;;;;15.47;76.87;100104.73;109980;1274;22417;-56
2023/07/15 01:45:53;;;;;;;64.10;34.00;;;;;;;15.46;77.05;100101.70;110001;1276;22943;-59
2023/07/15 01:48:25;;;;;;;56.10;27.10;;;;;;;15.44;76.94;100097.11;109974;1273;23435;-58
2023/07/15 01:50:56;;;;;;;53.90;26.60;;;;;;;15.41;77.09;100094.27;109999;1273;22223;-57
2023/07/15 01:53:26;;;;;;;62.40;28.70;;;;;;;15.39;77.32;100097.76;109928;1270;22196;-55
2023/07/15 01:55:57;;;;;;;51.50;23.50;;;;;;;15.36;77.41;100097.30;109932;1276;22315;-59
2023/07/15 01:58:28;;;;;;;55.00;26.30;;;;;;;15.34;77.49;100100.69;109986;1273;22302;-55
2023/07/15 02:00:59;;;;;;;58.80;28.50;;;;;;;15.31;77.80;100099.46;110004;1276;22149;-54
2023/07/15 02:03:30;;;;;;;40.40;18.90;;;;;;;15.28;77.81;100096.61;110105;1274;22904;-56
2023/07/15 02:06:00;;;;;;;34.40;16.40;;;;;;;15.26;77.99;100095.18;110035;1273;23058;-57
2023/07/15 02:08:32;;;;;;;27.10;12.70;;;;;;;15.23;78.05;100097.14;110117;1266;22832;-55
2023/07/15 02:11:03;;;;;;;23.40;8.80;;;;;;;15.21;78.28;100099.89;110032;1276;23115;-54
2023/07/15 02:13:34;;;;;;;21.80;6.80;;;;;;;15.19;78.36;100103.08;110095;1273;22273;-58
2023/07/15 02:16:06;;;;;;;16.10;5.90;;;;;;;15.18;78.42;100103.59;110078;1276;23421;-60
2023/07/15 02:18:36;;;;;;;12.90;3.60;;;;;;;15.19;78.60;100098.83;110109;1277;22183;-57
2023/07/15 02:21:07;;;;;;;11.20;3.00;;;;;;;15.20;78.89;100102.72;110086;1268;22201;-56
2023/07/15 02:23:38;;;;;;;13.10;2.80;;;;;;;15.20;78.93;100099.75;110045;1273;22960;-57
2023/07/15 02:26:09;;;;;;;8.30;2.20;;;;;;;15.19;78.86;100091.01;110075;1267;22427;-58
2023/07/15 02:28:40;;;;;;;11.10;2.60;;;;;;;15.19;79.00;100092.13;110089;1264;22198;-61
2023/07/15 02:31:11;;;;;;;9.10;2.40;;;;;;;15.21;78.95;100089.41;110076;1271;23260;-57
2023/07/15 02:33:42;;;;;;;7.20;2.40;;;;;;;15.22;78.99;100087.42;110098;1271;22897;-57
2023/07/15 02:36:13;;;;;;;10.50;2.50;;;;;;;15.21;79.19;100091.86;110035;1267;22324;-57
2023/07/15 02:38:44;;;;;;;9.80;3.00;;;;;;;15.18;79.32;100092.19;110079;1269;22203;-55
2023/07/15 02:41:15;;;;;;;10.20;2.60;;;;;;;15.14;79.41;100092.34;110091;1276;22228;-58
2023/07/15 02:43:46;;;;;;;11.60;4.00;;;;;;;15.12;79.52;100094.66;110062;1273;22203;-55
2023/07/15 02:46:17;;;;;;;8.00;2.50;;;;;;;15.09;79.61;100099.20;110079;1271;22517;-59
2023/07/15 02:48:48;;;;;;;8.70;2.30;;;;;;;15.07;79.82;100097.98;110075;1274;22211;-55
2023/07/15 02:51:19;;;;;;;12.00;3.10;;;;;;;15.04;79.73;100097.11;110076;1276;22377;-57
2023/07/15 02:53:51;;;;;;;6.80;2.80;;;;;;;15.01;79.99;100096.20;110086;1268;22381;-56
2023/07/15 02:56:22;;;;;;;8.70;2.80;;;;;;;14.98;79.99;100094.16;110075;1273;22331;-56
2023/07/15 02:58:53;;;;;;;7.80;2.30;;;;;;;14.96;80.11;100090.23;110105;1267;22135;-60
2023/07/15 03:01:24;;;;;;;9.00;3.40;;;;;;;14.92;80.24;100092.64;110060;1275;22263;-60
2023/07/15 03:03:56;;;;;;;7.20;2.10;;;;;;;14.91;80.32;100090.69;110089;1279;22865;-55
2023/07/15 03:06:27;;;;;;;6.80;2.30;;;;;;;14.89;80.45;100091.24;110071;1274;22314;-57
2023/07/15 03:08:58;;;;;;;8.40;2.30;;;;;;;14.87;80.69;100094.21;110032;1276;22283;-57
2023/07/15 03:11:29;;;;;;;8.70;2.60;;;;;;;14.86;80.70;100094.73;110071;1267;23242;-57
2023/07/15 03:13:59;;;;;;;10.00;3.10;;;;;;;14.84;80.87;100098.25;110100;1276;22298;-57
2023/07/15 03:16:30;;;;;;;10.80;2.80;;;;;;;14.83;81.06;100101.62;110068;1271;23570;-54
2023/07/15 03:19:01;;;;;;;12.00;2.90;;;;;;;14.81;81.24;100099.28;110033;1279;22325;-54
2023/07/15 03:21:32;;;;;;;9.40;2.80;;;;;;;14.81;81.27;100098.92;110088;1279;22226;-57
2023/07/15 03:24:03;;;;;;;10.10;2.60;;;;;;;14.79;81.36;100099.85;110027;1272;22329;-56
2023/07/15 03:26:34;;;;;;;7.00;2.10;;;;;;;14.79;81.49;100102.14;110070;1273;22142;-58
2023/07/15 03:29:08;;;;;;;9.70;2.60;;;;;;;14.78;81.55;100105.27;110088;1263;22267;-56
2023/07/15 03:31:39;;;;;;;7.60;2.70;;;;;;;14.77;81.84;100101.64;110050;1276;23078;-56
2023/07/15 03:34:10;;;;;;;13.20;2.80;;;;;;;14.76;81.89;100101.59;110073;1270;22348;-57
2023/07/15 03:36:42;;;;;;;9.40;2.60;;;;;;;14.75;82.04;100098.63;110104;1270;22200;-56
2023/07/15 03:39:13;;;;;;;11.10;2.70;;;;;;;14.76;82.12;100100.31;110113;1276;22156;-57
2023/07/15 03:41:43;;;;;;;11.50;3.20;;;;;;;14.79;82.22;100100.88;110083;1270;23010;-57
2023/07/15 03:44:14;;;;;;;8.60;3.40;;;;;;;14.80;82.47;100101.33;110104;1274;22226;-58
2023/07/15 03:46:45;;;;;;;9.70;3.30;;;;;;;14.80;82.37;100093.50;110082;1273;23586;-55
2023/07/15 03:49:16;;;;;;;9.20;3.00;;;;;;;14.83;82.51;100091.27;110083;1272;22216;-57
2023/07/15 03:51:47;;;;;;;9.10;3.20;;;;;;;14.85;82.57;100087.63;110087;1278;22184;-56
2023/07/15 03:54:18;;;;;;;12.40;3.50;;;;;;;14.86;82.71;100087.67;110076;1267;22228;-56
2023/07/15 03:56:49;;;;;;;13.20;3.60;;;;;;;14.89;82.90;100086.86;110089;1267;22255;-54
2023/07/15 03:59:20;;;;;;;11.30;3.00;;;;;;;14.91;82.92;100090.69;110123;1273;22178;-57
2023/07/15 04:01:51;;;;;;;10.20;3.20;;;;;;;14.93;83.02;100089.10;110073;1264;22180;-57
2023/07/15 04:04:22;;;;;;;8.50;3.10;;;;;;;14.96;83.20;100091.45;110099;1270;22264;-61
2023/07/15 04:06:54;;;;;;;8.40;3.00;;;;;;;15.02;83.28;100085.10;110110;1277;22126;-55
2023/07/15 04:09:25;;;;;;;10.40;3.40;;;;;;;15.06;83.26;100089.19;110104;1264;22321;-54
2023/07/15 04:11:57;;;;;;;12.20;3.70;;;;;;;15.11;83.30;100092.96;110087;1275;22410;-57
2023/07/15 04:14:28;;;;;;;9.70;3.40;;;;;;;15.16;83.56;100092.44;110092;1264;22190;-56
2023/07/15 04:16:59;;;;;;;12.60;4.20;;;;;;;15.21;83.73;100090.64;110077;1272;22161;-56
2023/07/15 04:19:29;;;;;;;12.70;4.00;;;;;;;15.26;83.77;100086.49;110080;1263;22216;-57
2023/07/15 04:22:01;;;;;;;10.60;3.50;;;;;;;15.32;83.84;100089.39;110089;1267;22274;-54
2023/07/15 04:24:33;;;;;;;11.80;4.00;;;;;;;15.39;84.08;100091.82;110086;1267;22884;-55
2023/07/15 04:27:04;;;;;;;10.90;4.00;;;;;;;15.47;84.15;100090.09;110063;1263;22207;-56
2023/07/15 04:29:35;;;;;;;15.80;5.40;;;;;;;15.55;84.36;100086.88;110062;1273;22178;-57
2023/07/15 04:32:07;;;;;;;12.70;4.30;;;;;;;15.65;84.27;100090.89;110059;1264;22360;-55
2023/07/15 04:34:38;;;;;;;15.00;5.30;;;;;;;15.75;84.75;100089.27;110086;1271;23044;-58
2023/07/15 04:37:09;;;;;;;20.90;6.40;;;;;;;15.83;84.83;100085.29;110084;1272;22173;-57
2023/07/15 04:39:40;;;;;;;16.90;6.20;;;;;;;15.92;84.93;100081.00;110065;1278;22156;-59
2023/07/15 04:42:11;;;;;;;16.80;5.90;;;;;;;16.03;85.21;100076.13;110076;1273;22334;-56
2023/07/15 04:44:42;;;;;;;17.80;6.00;;;;;;;16.13;85.42;100080.42;110072;1273;22278;-56
2023/07/15 04:47:13;;;;;;;15.70;6.80;;;;;;;16.25;85.46;100075.48;110104;1267;22188;-56
2023/07/15 04:49:44;;;;;;;22.20;6.70;;;;;;;16.37;85.57;100072.48;110088;1270;22165;-64
2023/07/15 04:52:15;;;;;;;21.40;6.30;;;;;;;16.49;85.77;100070.80;110080;1268;22359;-55
2023/07/15 04:54:46;;;;;;;22.80;6.50;;;;;;;16.61;85.74;100070.21;110070;1267;22173;-56
2023/07/15 04:57:19;;;;;;;18.60;6.60;;;;;;;16.73;85.88;100072.27;110071;1264;23294;-59
2023/07/15 04:59:50;;;;;;;13.20;5.20;;;;;;;16.85;86.07;100074.35;110038;1273;22152;-57
2023/07/15 05:02:21;;;;;;;14.90;5.40;;;;;;;16.96;85.96;100079.80;110061;1273;22240;-57
2023/07/15 05:04:52;;;;;;;17.70;6.80;;;;;;;17.07;86.00;100085.13;110044;1276;22333;-58
2023/07/15 05:07:23;;;;;;;20.50;6.50;;;;;;;17.18;85.85;100084.77;110061;1272;22884;-59
2023/07/15 05:09:54;;;;;;;17.80;6.70;;;;;;;17.30;86.02;100086.02;110089;1278;22814;-57
2023/07/15 05:12:24;;;;;;;16.00;5.90;;;;;;;17.40;86.01;100085.81;110057;1267;22246;-57
2023/07/15 05:14:55;;;;;;;14.50;5.80;;;;;;;17.50;86.09;100087.52;110096;1270;22184;-56
2023/07/15 05:17:26;;;;;;;15.20;6.30;;;;;;;17.62;86.09;100092.14;110096;1264;22262;-57
2023/07/15 05:19:57;;;;;;;16.50;6.50;;;;;;;17.75;86.02;100092.19;110100;1267;22254;-58
2023/07/15 05:22:28;;;;;;;13.40;5.20;;;;;;;17.89;86.01;100093.57;110097;1272;22346;-58
2023/07/15 05:24:59;;;;;;;13.40;6.10;;;;;;;18.02;85.96;100093.98;110086;1271;22341;-59
2023/07/15 05:27:30;;;;;;;18.40;5.70;;;;;;;18.17;85.98;100088.71;110080;1268;22226;-58
2023/07/15 05:30:01;;;;;;;15.70;5.90;;;;;;;18.31;85.73;100087.06;110042;1276;22244;-58
2023/07/15 05:32:33;;;;;;;13.00;5.20;;;;;;;18.43;85.44;100087.36;110085;1270;22281;-55
2023/07/15 05:35:04;;;;;;;12.70;4.10;;;;;;;18.56;84.95;100092.51;110036;1273;22439;-56
2023/07/15 05:37:35;;;;;;;12.10;4.50;;;;;;;18.70;84.53;100092.25;110068;1271;22240;-57
2023/07/15 05:40:09;;;;;;;12.20;3.90;;;;;;;18.82;84.14;100099.96;110095;1278;22503;-59
2023/07/15 05:42:41;;;;;;;12.20;4.00;;;;;;;18.94;83.91;100102.21;110070;1276;22197;-61
2023/07/15 05:45:13;;;;;;;11.30;3.00;;;;;;;19.10;83.67;100098.59;110077;1263;22179;-58
2023/07/15 05:47:44;;;;;;;11.40;3.40;;;;;;;19.27;83.35;100097.50;110058;1260;22179;-57
2023/07/15 05:50:15;;;;;;;12.70;3.50;;;;;;;19.44;82.94;100091.70;110118;1270;22224;-57
2023/07/15 05:52:46;;;;;;;11.70;3.10;;;;;;;19.57;82.19;100089.71;110066;1267;22236;-58
2023/07/15 05:55:18;;;;;;;13.60;2.90;;;;;;;19.65;81.96;100093.29;110066;1270;22210;-55
2023/07/15 05:57:50;;;;;;;11.30;3.60;;;;;;;19.78;82.03;100095.23;110147;1264;22394;-58
2023/07/15 06:00:21;;;;;;;12.80;2.90;;;;;;;19.92;81.63;100092.18;110020;1273;22239;-56
2023/07/15 06:02:52;;;;;;;6.30;2.40;;;;;;;20.02;81.29;100091.64;110094;1267;23494;-58
2023/07/15 06:05:23;;;;;;;12.40;3.30;;;;;;;20.17;80.46;100097.14;110076;1267;22311;-56
2023/07/15 06:07:53;;;;;;;12.60;2.90;;;;;;;20.26;79.93;100094.50;110064;1273;22183;-54
2023/07/15 06:10:24;;;;;;;11.60;3.60;;;;;;;20.39;80.25;100093.92;110079;1270;22184;-57
2023/07/15 06:12:55;;;;;;;12.30;3.30;;;;;;;20.56;79.79;100094.52;110113;1271;22190;-57
2023/07/15 06:15:26;;;;;;;7.50;2.60;;;;;;;20.68;79.51;100095.44;110065;1267;22166;-59
2023/07/15 06:17:59;;;;;;;11.40;3.60;;;;;;;20.82;79.48;100091.60;110112;1264;23343;-57
2023/07/15 06:20:29;;;;;;;11.30;3.20;;;;;;;20.96;79.47;100091.33;110109;1273;22228;-55
2023/07/15 06:23:00;;;;;;;8.70;2.80;;;;;;;21.10;78.87;100090.91;110075;1272;23172;-57
2023/07/15 06:25:31;;;;;;;9.60;3.20;;;;;;;21.25;78.90;100088.80;110078;1271;22213;-56
2023/07/15 06:28:02;;;;;;;8.80;2.70;;;;;;;21.44;78.33;100092.66;110074;1276;22377;-59
2023/07/15 06:30:34;;;;;;;9.70;3.00;;;;;;;21.55;77.56;100095.95;110082;1273;22328;-55
2023/07/15 06:33:04;;;;;;;8.70;2.40;;;;;;;21.66;77.32;100099.58;110046;1271;22159;-57
2023/07/15 06:35:35;;;;;;;15.00;3.80;;;;;;;21.75;77.17;100099.22;110062;1263;23018;-58
2023/07/15 06:38:07;;;;;;;8.20;2.50;;;;;;;21.84;76.59;100101.36;110078;1273;22232;-58
2023/07/15 06:40:37;;;;;;;11.10;2.80;;;;;;;21.93;76.10;100097.86;110091;1266;22189;-57
2023/07/15 06:43:08;;;;;;;10.50;2.90;;;;;;;22.05;75.94;100103.48;110091;1271;22277;-57
2023/07/15 06:45:39;;;;;;;10.30;2.00;;;;;;;22.18;75.45;100101.48;110102;1267;22233;-60
2023/07/15 06:48:10;;;;;;;10.10;2.10;;;;;;;22.28;75.16;100103.49;110087;1263;22321;-58
2023/07/15 06:50:41;;;;;;;10.10;2.30;;;;;;;22.39;74.86;100098.52;110041;1272;22171;-62
2023/07/15 06:53:12;;;;;;;11.80;2.70;;;;;;;22.50;74.41;100094.73;110086;1276;22333;-58
2023/07/15 06:55:43;;;;;;;10.10;2.10;;;;;;;22.59;73.95;100091.41;110024;1273;22278;-60
2023/07/15 06:58:14;;;;;;;6.70;1.40;;;;;;;22.70;73.09;100093.71;110065;1273;22327;-60
2023/07/15 07:00:45;;;;;;;6.50;2.00;;;;;;;22.78;72.87;100091.67;110069;1278;23086;-59
2023/07/15 07:03:16;;;;;;;11.50;2.80;;;;;;;22.88;72.96;100086.79;110041;1263;22944;-58
2023/07/15 07:05:47;;;;;;;14.70;3.00;;;;;;;22.97;72.59;100083.63;110070;1267;22295;-59
2023/07/15 07:08:18;;;;;;;9.80;2.20;;;;;;;23.06;72.23;100080.34;110021;1263;23052;-59
2023/07/15 07:10:58;;;;;;;6.40;1.90;;;;;;;23.17;72.25;100077.64;109878;1270;22539;-55
2023/07/15 07:13:29;;;;;;;7.80;1.80;;;;;;;23.28;71.38;100077.77;110126;1264;23114;-59
2023/07/15 07:16:00;;;;;;;11.00;1.90;;;;;;;23.39;71.22;100073.84;110046;1270;22315;-55
2023/07/15 07:18:31;;;;;;;7.60;1.90;;;;;;;23.49;70.56;100075.21;110040;1267;22261;-59
2023/07/15 07:21:02;;;;;;;6.50;1.60;;;;;;;23.58;70.39;100070.48;110055;1265;22333;-58
2023/07/15 07:23:33;;;;;;;8.90;2.20;;;;;;;23.71;70.02;100071.16;110060;1267;22210;-58
2023/07/15 07:26:04;;;;;;;6.40;1.80;;;;;;;23.83;69.49;100072.98;110079;1267;22495;-59
2023/07/15 07:28:43;;;;;;;7.30;1.70;;;;;;;23.91;68.56;100070.83;110035;1264;22160;-58
2023/07/15 07:31:17;;;;;;;9.60;1.80;;;;;;;24.00;68.58;100072.92;110057;1263;22888;-62
2023/07/15 07:33:48;;;;;;;11.20;1.80;;;;;;;24.09;68.17;100076.64;110058;1273;22186;-58
2023/07/15 07:36:19;;;;;;;7.10;2.00;;;;;;;24.20;68.00;100078.83;110046;1273;22921;-57
2023/07/15 07:38:50;;;;;;;9.80;1.50;;;;;;;24.29;67.56;100073.23;110085;1273;22440;-58
2023/07/15 07:41:21;;;;;;;6.20;1.70;;;;;;;24.37;67.13;100070.30;110101;1264;22972;-60
2023/07/15 07:43:51;;;;;;;8.70;1.80;;;;;;;24.47;67.42;100067.76;110075;1264;22226;-62
2023/07/15 07:46:22;;;;;;;6.40;1.80;;;;;;;24.61;67.01;100065.98;110055;1271;22223;-59
2023/07/15 07:48:53;;;;;;;6.90;1.60;;;;;;;24.75;66.18;100063.09;110079;1264;22301;-58
2023/07/15 07:51:24;;;;;;;7.90;1.80;;;;;;;24.85;66.27;100065.41;110086;1278;22185;-58
2023/07/15 07:53:55;;;;;;;6.30;1.60;;;;;;;24.98;66.14;100062.79;110063;1264;22229;-58
2023/07/15 07:56:27;;;;;;;8.30;2.10;;;;;;;25.08;66.19;100060.05;110101;1274;22186;-59
2023/07/15 07:59:01;;;;;;;7.80;2.00;;;;;;;25.21;65.76;100061.86;110072;1263;22310;-59
2023/07/15 08:01:32;;;;;;;6.50;1.50;;;;;;;25.34;65.40;100065.70;110100;1263;23089;-58
2023/07/15 08:04:04;;;;;;;6.60;1.60;;;;;;;25.42;64.86;100064.31;110047;1278;22316;-60
2023/07/15 08:06:35;;;;;;;10.70;1.50;;;;;;;25.51;64.78;100058.73;110070;1278;22924;-62
2023/07/15 08:09:06;;;;;;;6.00;1.40;;;;;;;25.61;64.67;100055.27;110115;1264;22355;-63
2023/07/15 08:11:37;;;;;;;3.90;1.40;;;;;;;25.74;64.34;100053.66;110071;1264;22349;-63
2023/07/15 08:14:09;;;;;;;9.10;1.40;;;;;;;25.84;63.75;100054.89;110084;1271;23528;-62
2023/07/15 08:16:41;;;;;;;6.30;1.50;;;;;;;25.92;63.01;100048.25;110062;1273;22209;-65
2023/07/15 08:19:12;;;;;;;8.20;1.40;;;;;;;26.03;63.09;100047.02;110064;1271;22527;-62
2023/07/15 08:21:44;;;;;;;5.10;1.20;;;;;;;26.14;62.59;100050.97;110087;1271;22183;-62
2023/07/15 08:24:15;;;;;;;3.70;1.10;;;;;;;26.26;61.59;100047.34;110089;1271;22220;-62
2023/07/15 08:26:47;;;;;;;6.90;1.50;;;;;;;26.35;61.33;100045.34;110077;1271;22296;-62
2023/07/15 08:29:18;;;;;;;7.90;1.00;;;;;;;26.44;61.07;100042.07;110065;1268;22205;-62
2023/07/15 08:31:50;;;;;;;7.70;1.10;;;;;;;26.54;60.49;100042.27;110085;1271;23083;-62
2023/07/15 08:34:21;;;;;;;5.60;1.30;;;;;;;26.64;60.03;100042.08;110074;1263;22202;-63
2023/07/15 08:36:52;;;;;;;6.20;1.30;;;;;;;26.75;59.76;100039.91;110103;1270;22349;-62
2023/07/15 08:39:23;;;;;;;5.40;1.20;;;;;;;26.85;59.68;100037.88;110054;1273;22254;-63
2023/07/15 08:41:57;;;;;;;4.60;1.20;;;;;;;26.95;58.89;100037.66;110080;1270;22227;-61
2023/07/15 08:44:28;;;;;;;7.00;1.40;;;;;;;27.04;58.42;100037.08;110048;1272;23147;-63
2023/07/15 08:47:00;;;;;;;9.30;1.70;;;;;;;27.12;58.46;100033.41;110091;1264;22303;-62
2023/07/15 08:49:32;;;;;;;4.50;1.10;;;;;;;27.21;57.81;100033.91;110091;1271;22893;-62
2023/07/15 08:52:05;;;;;;;4.90;1.10;;;;;;;27.30;57.93;100035.35;110087;1264;22288;-62
2023/07/15 08:54:38;;;;;;;5.50;1.30;;;;;;;27.38;57.65;100027.85;110102;1273;22197;-62
2023/07/15 08:57:11;;;;;;;5.80;1.30;;;;;;;27.46;57.36;100027.70;110059;1272;22182;-62
2023/07/15 08:59:43;;;;;;;6.00;1.20;;;;;;;27.54;57.08;100027.58;110074;1273;22170;-62
2023/07/15 09:02:14;;;;;;;6.10;1.30;;;;;;;27.63;56.06;100025.23;110076;1272;23359;-63
2023/07/15 09:04:45;;;;;;;4.50;1.00;;;;;;;27.71;56.04;100026.55;110116;1272;23191;-62
2023/07/15 09:07:15;;;;;;;4.90;0.60;;;;;;;27.82;55.37;100031.56;110084;1267;22339;-62
2023/07/15 09:09:46;;;;;;;3.50;0.80;;;;;;;27.92;54.45;100033.69;110066;1267;22234;-62
2023/07/15 09:12:17;;;;;;;4.60;0.80;;;;;;;28.02;53.97;100031.15;110068;1267;22221;-62
2023/07/15 09:14:51;;;;;;;7.40;1.20;;;;;;;28.11;53.43;100025.92;110095;1270;22241;-63
2023/07/15 09:17:24;;;;;;;6.70;1.00;;;;;;;28.18;52.54;100028.75;109993;1264;22219;-62
2023/07/15 09:19:55;;;;;;;4.70;0.90;;;;;;;28.25;51.91;100030.70;110091;1264;22189;-63
2023/07/15 09:22:26;;;;;;;3.30;0.80;;;;;;;28.32;51.42;100030.19;110109;1263;23004;-62
2023/07/15 09:25:05;;;;;;;4.20;1.00;;;;;;;28.41;51.25;100022.66;110094;1270;22992;-63
2023/07/15 09:27:35;;;;;;;3.80;0.80;;;;;;;28.48;51.08;100022.86;110087;1263;22211;-62
2023/07/15 09:30:10;;;;;;;2.90;0.80;;;;;;;28.54;50.52;100022.41;110053;1263;22974;-62
2023/07/15 09:32:41;;;;;;;5.10;0.80;;;;;;;28.61;50.50;100020.68;110042;1264;22959;-63
2023/07/15 09:35:13;;;;;;;3.80;0.90;;;;;;;28.69;49.54;100016.08;110120;1263;23004;-63
2023/07/15 09:37:49;;;;;;;5.10;1.00;;;;;;;28.73;49.11;100019.97;110110;1273;22156;-62
2023/07/15 09:40:20;;;;;;;5.10;0.80;;;;;;;28.82;49.32;100016.23;110090;1264;22194;-63
2023/07/15 09:42:55;;;;;;;2.80;0.80;;;;;;;28.94;48.80;100016.95;110110;1264;22317;-62
2023/07/15 09:45:36;;;;;;;6.00;0.80;;;;;;;29.01;48.63;100015.70;110097;1264;22801;-62
2023/07/15 09:48:09;;;;;;;3.90;0.80;;;;;;;29.10;47.54;100012.42;110121;1274;22190;-63
2023/07/15 09:50:41;;;;;;;6.30;1.10;;;;;;;29.18;47.57;100011.62;110092;1264;22318;-63
2023/07/15 09:53:13;;;;;;;2.60;0.70;;;;;;;29.26;47.38;100015.14;110124;1272;22176;-63
2023/07/15 09:55:45;;;;;;;4.40;0.80;;;;;;;29.31;47.00;100012.66;110106;1271;22331;-62
2023/07/15 09:58:22;;;;;;;5.20;0.90;;;;;;;29.36;46.09;100016.00;110100;1263;22245;-63
2023/07/15 10:00:58;;;;;;;3.30;0.90;;;;;;;29.43;45.79;100010.26;110114;1277;22318;-63
2023/07/15 10:03:33;;;;;;;2.60;0.60;;;;;;;29.50;46.09;100010.88;110116;1278;23320;-63
2023/07/15 10:06:06;;;;;;;4.60;0.80;;;;;;;29.56;45.83;100014.20;110101;1263;22372;-63
2023/07/15 10:08:38;;;;;;;3.20;0.80;;;;;;;29.64;45.71;100012.52;110136;1273;22681;-63
2023/07/15 10:11:10;;;;;;;5.10;0.70;;;;;;;29.71;45.28;100008.52;110120;1263;22224;-63
2023/07/15 10:13:42;;;;;;;5.10;0.90;;;;;;;29.76;45.21;100008.18;110123;1267;22255;-62
2023/07/15 10:16:13;;;;;;;2.30;0.50;;;;;;;29.83;45.17;100005.61;110110;1264;22334;-63
2023/07/15 10:18:46;;;;;;;3.20;0.90;;;;;;;29.90;44.93;99997.85;110132;1274;22197;-63
2023/07/15 10:21:17;;;;;;;3.50;1.00;;;;;;;29.98;44.78;99995.22;110104;1272;22932;-62
2023/07/15 10:23:48;;;;;;;3.60;0.90;;;;;;;30.05;44.66;99998.44;110116;1264;23128;-63
2023/07/15 10:26:23;;;;;;;2.70;0.60;;;;;;;30.11;43.93;100003.39;110094;1275;22230;-63
2023/07/15 10:28:54;;;;;;;3.10;0.60;;;;;;;30.18;43.31;100003.27;110128;1264;22981;-62
2023/07/15 10:31:27;;;;;;;4.60;0.80;;;;;;;30.24;43.12;100000.79;110139;1264;22541;-62
2023/07/15 10:33:59;;;;;;;3.20;0.80;;;;;;;30.28;42.62;99998.65;110120;1270;22239;-63
2023/07/15 10:36:41;;;;;;;4.40;0.90;;;;;;;30.31;42.17;99995.81;110150;1271;22119;-64
2023/07/15 10:39:17;;;;;;;4.90;0.60;;;;;;;30.35;41.77;99990.41;110110;1264;22234;-63
2023/07/15 10:41:50;;;;;;;3.40;0.80;;;;;;;30.37;41.70;99990.97;110112;1273;22283;-63
2023/07/15 10:44:22;;;;;;;2.70;0.70;;;;;;;30.42;41.92;99991.88;110091;1274;22233;-62
2023/07/15 10:47:04;;;;;;;5.30;1.10;;;;;;;30.47;41.88;99989.42;110126;1267;22396;-62
2023/07/15 10:49:36;;;;;;;3.30;0.60;;;;;;;30.51;41.17;99991.85;110104;1262;22212;-63
2023/07/15 10:52:08;;;;;;;3.60;0.80;;;;;;;30.53;41.16;99990.71;110120;1271;22404;-63
2023/07/15 10:54:40;;;;;;;2.50;0.60;;;;;;;30.57;40.81;99990.51;110097;1278;22232;-63
2023/07/15 10:57:14;;;;;;;3.80;0.80;;;;;;;30.59;40.36;99990.63;110116;1274;22211;-62
2023/07/15 10:59:46;;;;;;;3.80;0.70;;;;;;;30.63;40.29;99991.17;110144;1263;22338;-63
2023/07/15 11:02:17;;;;;;;2.40;0.60;;;;;;;30.66;39.27;99991.05;110133;1263;22244;-63
2023/07/15 11:04:48;;;;;;;4.30;0.70;;;;;;;30.67;39.20;99991.13;110086;1274;22341;-65
2023/07/15 11:07:28;;;;;;;4.00;0.90;;;;;;;30.69;38.96;99991.38;110084;1263;22205;-63
2023/07/15 11:09:59;;;;;;;3.30;1.00;;;;;;;30.70;38.53;99989.48;110120;1263;22237;-63
2023/07/15 11:12:33;;;;;;;2.70;0.50;;;;;;;30.74;37.97;99989.98;110131;1260;23128;-62
2023/07/15 11:15:04;;;;;;;4.30;0.60;;;;;;;30.77;37.85;99990.15;110139;1270;22432;-63
2023/07/15 11:17:39;;;;;;;4.70;0.70;;;;;;;30.81;37.90;99990.55;105984;1275;5415149;-63
2023/07/15 11:20:14;;;;;;;3.80;0.80;;;;;;;30.86;37.62;99986.70;110135;1271;22292;-63
2023/07/15 11:22:45;;;;;;;3.80;0.70;;;;;;;30.90;37.71;99983.95;110080;1273;22278;-63
2023/07/15 11:25:16;;;;;;;7.20;0.90;;;;;;;30.95;37.60;99979.51;110100;1267;23075;-62
2023/07/15 11:27:47;;;;;;;2.50;0.50;;;;;;;31.01;37.02;99978.55;110146;1264;22207;-63
2023/07/15 11:30:18;;;;;;;5.70;0.80;;;;;;;31.04;36.61;99974.72;110098;1274;23109;-63
2023/07/15 11:32:56;;;;;;;7.30;1.00;;;;;;;31.08;36.35;99974.06;110103;1271;22431;-63
2023/07/15 11:35:30;;;;;;;2.50;0.60;;;;;;;31.12;36.15;99978.22;110059;1271;22203;-63